Time;durP1;ratioP1;P1;durP2;ratioP2;P2;SDS_P1;SDS_P2;PMS_P1;PMS_P2;Temp;Humidity;BMP_temperature;BMP_pressure;BME280_temperature;BME280_humidity;BME280_pressure;Samples;Min_cycle;Max_cycle;Signal;HPM_P1;HPM_P2
2022/06/13 00:00:53;;;;;;;5.70;2.50;;;18.80;99.90;;;;;;5066864;28;20430;-81
2022/06/13 00:03:29;;;;;;;5.00;2.20;;;18.70;99.90;;;;;;5056794;28;20417;-81
2022/06/13 00:06:17;;;;;;;6.10;3.00;;;18.60;99.90;;;;;;5078378;28;20420;-81
2022/06/13 00:08:47;;;;;;;4.60;2.20;;;18.60;99.90;;;;;;5073076;28;21096;-81
2022/06/13 00:11:16;;;;;;;5.43;2.23;;;18.50;99.90;;;;;;5076177;28;20436;-81
2022/06/13 00:13:59;;;;;;;9.27;2.43;;;18.40;99.90;;;;;;5063170;28;20904;-81
2022/06/13 00:17:04;;;;;;;10.20;2.97;;;18.40;99.90;;;;;;5063793;28;20432;-81
2022/06/13 00:20:10;;;;;;;10.27;2.70;;;18.30;99.90;;;;;;5067222;28;20426;-82
2022/06/13 00:22:58;;;;;;;6.90;3.00;;;18.30;99.90;;;;;;5066928;28;20403;-81
2022/06/13 00:25:30;;;;;;;8.20;2.60;;;18.30;99.90;;;;;;5075983;28;20473;-81
2022/06/13 00:28:29;;;;;;;4.30;2.20;;;18.20;99.90;;;;;;5074843;28;20431;-81
2022/06/13 00:30:54;;;;;;;8.23;3.10;;;18.20;99.90;;;;;;5075068;28;20925;-81
2022/06/13 00:33:29;;;;;;;6.07;2.40;;;18.20;99.90;;;;;;5075913;28;20521;-81
2022/06/13 00:36:28;;;;;;;10.97;3.10;;;18.10;99.90;;;;;;5074956;28;20676;-81
2022/06/13 00:38:55;;;;;;;10.77;3.00;;;18.10;99.90;;;;;;5065785;28;20435;-81
2022/06/13 00:41:24;;;;;;;16.80;3.40;;;18.10;99.90;;;;;;5059077;28;20964;-81
2022/06/13 00:44:28;;;;;;;7.43;3.10;;;17.90;99.90;;;;;;5078519;28;20411;-81
2022/06/13 00:46:59;;;;;;;8.47;2.40;;;17.90;99.90;;;;;;5065417;28;20568;-81
2022/06/13 00:49:44;;;;;;;3.70;2.70;;;17.90;99.90;;;;;;5071975;28;20425;-81
2022/06/13 00:52:23;;;;;;;7.67;2.73;;;17.70;99.90;;;;;;5066991;28;20459;-81
2022/06/13 00:54:54;;;;;;;8.53;3.13;;;17.70;99.90;;;;;;5066863;28;20499;-81
2022/06/13 00:57:35;;;;;;;9.03;2.70;;;17.70;99.90;;;;;;5066278;28;20941;-81
2022/06/13 01:00:13;;;;;;;7.10;2.67;;;17.70;99.90;;;;;;5055707;28;20412;-81
2022/06/13 01:02:45;;;;;;;12.00;2.63;;;17.60;99.90;;;;;;5079928;28;20442;-81
2022/06/13 01:05:16;;;;;;;8.27;2.80;;;17.60;99.90;;;;;;5082468;28;20415;-81
2022/06/13 01:07:42;;;;;;;11.30;3.00;;;17.60;99.90;;;;;;5065581;28;20416;-81
2022/06/13 01:13:12;;;;;;;10.13;2.60;;;17.50;99.90;;;;;;5068050;28;20497;-81
2022/06/13 01:16:02;;;;;;;6.80;2.90;;;17.50;99.90;;;;;;5056477;28;20432;-81
2022/06/13 01:18:47;;;;;;;5.90;3.00;;;17.40;99.90;;;;;;5071494;28;20473;-81
2022/06/13 01:24:49;;;;;;;6.80;2.50;;;17.20;99.90;;;;;;5068582;28;20458;-81
2022/06/13 01:27:56;;;;;;;5.70;2.80;;;17.20;99.90;;;;;;5063546;28;20410;-81
2022/06/13 01:30:37;;;;;;;9.57;3.33;;;17.10;99.90;;;;;;5059949;28;20414;-81
2022/06/13 01:33:33;;;;;;;3.80;2.80;;;17.10;99.90;;;;;;5057687;28;20509;-81
2022/06/13 01:36:35;;;;;;;5.20;2.50;;;17.00;99.90;;;;;;5067993;28;20421;-81
2022/06/13 01:39:46;;;;;;;5.03;2.53;;;16.90;99.90;;;;;;5055337;28;20419;-81
2022/06/13 01:42:32;;;;;;;11.40;2.80;;;16.80;99.90;;;;;;5066005;28;20426;-81
2022/06/13 01:45:40;;;;;;;8.13;2.90;;;16.80;99.90;;;;;;5061892;28;20520;-81
2022/06/13 01:48:26;;;;;;;7.73;2.43;;;16.70;99.90;;;;;;5074697;28;20428;-81
2022/06/13 01:51:18;;;;;;;5.43;2.47;;;16.70;99.90;;;;;;5070076;28;20409;-81
2022/06/13 01:54:09;;;;;;;5.37;2.60;;;16.70;99.90;;;;;;5062552;28;20506;-81
2022/06/13 01:57:03;;;;;;;7.83;2.53;;;16.70;99.90;;;;;;5063844;28;20910;-81
2022/06/13 02:00:18;;;;;;;11.83;2.80;;;16.60;99.90;;;;;;5054878;28;20512;-81
2022/06/13 02:03:03;;;;;;;8.13;2.70;;;16.60;99.90;;;;;;5046039;28;20417;-81
2022/06/13 02:05:41;;;;;;;4.80;2.37;;;16.50;99.90;;;;;;5039621;28;20509;-81
2022/06/13 02:08:18;;;;;;;7.90;2.90;;;16.50;99.90;;;;;;5032523;28;20416;-81
2022/06/13 02:10:56;;;;;;;8.63;2.57;;;16.50;99.90;;;;;;5028690;28;20442;-81
2022/06/13 02:13:47;;;;;;;5.73;2.40;;;16.50;99.90;;;;;;5025722;28;20466;-81
2022/06/13 02:16:46;;;;;;;4.37;2.37;;;16.40;99.90;;;;;;5022845;28;20439;-81
2022/06/13 02:19:32;;;;;;;4.23;2.60;;;16.40;99.90;;;;;;5021245;28;20477;-82
2022/06/13 02:22:10;;;;;;;5.17;2.40;;;16.30;99.90;;;;;;5015121;28;20510;-81
2022/06/13 02:24:47;;;;;;;7.87;2.80;;;16.30;99.90;;;;;;5026902;28;20431;-82
2022/06/13 02:27:29;;;;;;;11.20;2.67;;;16.30;99.90;;;;;;5020466;28;20482;-82
2022/06/13 02:30:12;;;;;;;6.10;2.60;;;16.30;99.90;;;;;;5029473;28;20807;-81
2022/06/13 02:36:23;;;;;;;5.30;2.70;;;16.20;99.90;;;;;;5031034;28;20427;-81
2022/06/13 02:38:59;;;;;;;11.13;2.70;;;16.10;99.90;;;;;;5032447;28;21220;-81
2022/06/13 02:42:13;;;;;;;9.50;2.60;;;16.00;99.90;;;;;;5046860;28;20501;-81
2022/06/13 02:44:49;;;;;;;6.40;2.47;;;16.00;99.90;;;;;;4972402;28;20802;-81
2022/06/13 02:47:52;;;;;;;8.87;2.53;;;16.00;99.90;;;;;;4972829;28;20808;-81
2022/06/13 02:50:36;;;;;;;10.77;3.53;;;16.00;99.90;;;;;;4948173;29;20430;-81
2022/06/13 02:53:08;;;;;;;6.93;3.00;;;16.00;99.90;;;;;;4941137;29;20491;-81
2022/06/13 02:55:45;;;;;;;3.77;2.47;;;15.90;99.90;;;;;;4953727;29;20441;-81
2022/06/13 02:58:41;;;;;;;4.20;2.40;;;16.00;99.90;;;;;;4962878;28;20456;-81
2022/06/13 03:01:24;;;;;;;6.03;3.13;;;16.00;99.90;;;;;;4934272;29;20424;-81
2022/06/13 03:04:19;;;;;;;9.40;3.00;;;16.00;99.90;;;;;;4937214;28;20426;-81
2022/06/13 03:07:07;;;;;;;7.47;2.60;;;16.00;99.90;;;;;;4959959;28;20522;-81
2022/06/13 03:09:46;;;;;;;8.93;2.37;;;15.90;99.90;;;;;;4954334;28;20939;-81
2022/06/13 03:12:33;;;;;;;6.80;3.00;;;16.00;99.90;;;;;;4956896;28;20473;-81
2022/06/13 03:15:27;;;;;;;12.13;2.70;;;16.00;99.90;;;;;;4921008;28;20446;-81
2022/06/13 03:18:12;;;;;;;10.40;2.90;;;16.10;99.90;;;;;;4972883;28;20474;-81
2022/06/13 03:21:10;;;;;;;5.60;2.50;;;16.20;99.90;;;;;;4978131;28;20937;-81
2022/06/13 03:24:11;;;;;;;7.20;2.00;;;16.20;99.90;;;;;;4992128;28;20447;-82
2022/06/13 03:27:16;;;;;;;7.27;2.43;;;16.30;99.90;;;;;;5001510;28;20477;-81
2022/06/13 03:29:53;;;;;;;5.47;2.50;;;16.30;99.90;;;;;;4994029;28;20500;-81
2022/06/13 03:32:28;;;;;;;6.80;2.17;;;16.40;99.90;;;;;;4995002;28;20434;-81
2022/06/13 03:35:11;;;;;;;7.10;2.80;;;16.30;99.90;;;;;;5012297;28;20412;-81
2022/06/13 03:37:50;;;;;;;5.70;2.20;;;16.40;99.90;;;;;;4995638;28;20422;-81
2022/06/13 03:40:32;;;;;;;12.80;2.70;;;16.40;99.90;;;;;;5003386;28;20428;-81
2022/06/13 03:43:15;;;;;;;5.60;2.20;;;16.40;99.90;;;;;;4981545;28;20432;-81
2022/06/13 03:45:53;;;;;;;4.97;2.03;;;16.40;99.90;;;;;;4985039;28;20471;-81
2022/06/13 03:49:01;;;;;;;7.83;2.53;;;16.50;99.90;;;;;;5010024;28;20427;-81
2022/06/13 03:51:43;;;;;;;12.80;2.00;;;16.60;99.90;;;;;;4937507;29;20422;-81
2022/06/13 03:54:34;;;;;;;4.90;2.17;;;16.70;99.90;;;;;;4936285;28;20472;-81
2022/06/13 03:57:40;;;;;;;8.30;1.77;;;16.70;99.90;;;;;;5003547;28;20514;-81
2022/06/13 04:00:39;;;;;;;4.03;2.10;;;16.80;99.90;;;;;;4924151;29;20431;-81
2022/06/13 04:03:07;;;;;;;9.90;1.97;;;16.80;99.90;;;;;;4937131;29;20507;-81
2022/06/13 04:05:42;;;;;;;5.00;1.70;;;16.80;99.90;;;;;;4937323;29;20482;-81
2022/06/13 04:08:23;;;;;;;3.97;1.60;;;16.80;99.90;;;;;;4922355;29;20409;-82
2022/06/13 04:11:19;;;;;;;2.70;1.57;;;16.80;99.90;;;;;;4909309;29;20987;-82
2022/06/13 04:17:38;;;;;;;5.57;1.80;;;16.80;99.90;;;;;;4934862;29;20817;-81
2022/06/13 04:20:43;;;;;;;4.73;1.90;;;16.80;99.90;;;;;;4908189;29;20435;-82
2022/06/13 04:23:41;;;;;;;7.47;2.17;;;16.70;99.90;;;;;;4893944;29;20516;-81
2022/06/13 04:26:52;;;;;;;2.73;1.90;;;16.80;99.90;;;;;;4934065;29;20435;-81
2022/06/13 04:29:52;;;;;;;4.43;1.73;;;16.90;99.90;;;;;;4929483;29;20498;-82
2022/06/13 04:32:56;;;;;;;4.27;2.03;;;16.90;99.90;;;;;;4936755;29;20479;-83
2022/06/13 04:35:53;;;;;;;3.57;1.77;;;17.00;99.90;;;;;;4942956;28;20451;-86
2022/06/13 04:38:54;;;;;;;6.13;1.60;;;17.20;99.90;;;;;;5001681;28;20432;-87
2022/06/13 04:41:26;;;;;;;32.67;2.50;;;17.30;99.90;;;;;;4993891;28;20520;-84
2022/06/13 04:43:57;;;;;;;7.80;1.93;;;17.50;99.90;;;;;;5013557;28;21062;-77
2022/06/13 04:46:26;;;;;;;6.87;2.17;;;17.50;99.90;;;;;;5013086;28;20433;-77
2022/06/13 04:48:57;;;;;;;4.30;2.27;;;17.50;99.90;;;;;;5002725;28;20418;-77
2022/06/13 04:51:38;;;;;;;7.40;2.37;;;17.60;99.90;;;;;;5005065;28;20772;-76
2022/06/13 04:54:34;;;;;;;3.90;2.30;;;17.60;99.90;;;;;;5013663;28;20442;-77
2022/06/13 04:57:06;;;;;;;7.23;2.20;;;17.60;99.90;;;;;;4932928;29;20493;-77
2022/06/13 04:59:35;;;;;;;5.53;2.20;;;17.50;99.90;;;;;;4985011;28;20516;-77
2022/06/13 05:02:05;;;;;;;3.73;2.10;;;17.50;99.90;;;;;;4981206;28;20819;-77
2022/06/13 05:04:35;;;;;;;8.50;2.40;;;17.50;99.90;;;;;;4993656;28;20462;-76
2022/06/13 05:07:20;;;;;;;4.43;2.57;;;17.60;99.90;;;;;;4981034;28;20430;-77
2022/06/13 05:09:57;;;;;;;4.03;2.30;;;17.60;99.90;;;;;;4991665;28;20438;-82
2022/06/13 05:12:47;;;;;;;5.80;2.40;;;17.60;99.90;;;;;;4987843;28;20448;-78
2022/06/13 05:15:16;;;;;;;4.10;2.10;;;17.50;99.90;;;;;;5010204;28;20462;-78
2022/06/13 05:18:11;;;;;;;3.90;2.20;;;17.50;99.90;;;;;;4994458;28;20510;-88
2022/06/13 05:21:04;;;;;;;5.80;2.47;;;17.50;99.90;;;;;;4991159;28;20434;-88
2022/06/13 05:23:58;;;;;;;6.60;2.10;;;17.50;99.90;;;;;;4993900;28;20477;-88
2022/06/13 05:26:52;;;;;;;6.20;2.47;;;17.40;99.90;;;;;;4988464;28;20401;-88
2022/06/13 05:29:25;;;;;;;13.10;2.40;;;17.30;99.90;;;;;;4967916;28;20442;-91
2022/06/13 05:31:53;;;;;;;7.63;2.53;;;17.20;99.90;;;;;;4975225;28;20474;-91
2022/06/13 05:34:53;;;;;;;8.53;2.27;;;17.20;99.90;;;;;;5048949;28;20421;-92
2022/06/13 05:37:23;;;;;;;7.17;2.63;;;17.30;99.90;;;;;;5074357;28;20476;-91
2022/06/13 05:39:53;;;;;;;3.27;1.97;;;17.30;99.90;;;;;;5087039;28;20925;-89
2022/06/13 05:42:29;;;;;;;5.20;2.10;;;17.40;99.90;;;;;;5075193;28;20423;-91
2022/06/13 05:45:23;;;;;;;3.57;2.17;;;17.40;99.90;;;;;;5075317;28;20948;-91
2022/06/13 05:47:50;;;;;;;9.47;2.30;;;17.50;99.90;;;;;;5082223;28;20858;-91
2022/06/13 05:50:29;;;;;;;5.73;2.17;;;17.60;99.90;;;;;;5063993;28;20426;-81
2022/06/13 05:53:18;;;;;;;6.50;2.70;;;17.60;99.90;;;;;;5054596;28;20459;-81
2022/06/13 05:56:05;;;;;;;5.80;2.00;;;17.70;99.90;;;;;;5072079;28;20449;-85
2022/06/13 05:58:36;;;;;;;6.73;2.30;;;17.80;99.90;;;;;;5072642;28;20450;-84
2022/06/13 06:01:14;;;;;;;10.87;2.33;;;17.80;99.90;;;;;;5061813;28;20423;-79
2022/06/13 06:03:43;;;;;;;5.10;2.10;;;17.90;99.90;;;;;;5072896;28;20492;-79
2022/06/13 06:06:14;;;;;;;6.67;2.37;;;17.90;99.90;;;;;;5063387;28;20432;-80
2022/06/13 06:08:56;;;;;;;8.00;2.50;;;18.00;99.90;;;;;;5056452;28;20431;-80
2022/06/13 06:11:30;;;;;;;12.07;2.73;;;18.00;99.90;;;;;;5054471;28;20778;-80
2022/06/13 06:14:23;;;;;;;11.00;2.70;;;18.10;99.90;;;;;;5060930;28;20456;-80
2022/06/13 06:17:11;;;;;;;7.37;2.43;;;18.20;99.90;;;;;;5070583;28;20516;-80
2022/06/13 06:20:15;;;;;;;3.67;2.30;;;18.30;99.90;;;;;;5065579;28;20394;-80
2022/06/13 06:22:41;;;;;;;4.00;1.90;;;18.40;99.90;;;;;;5093793;28;20423;-79
2022/06/13 06:25:23;;;;;;;3.47;2.00;;;18.50;99.90;;;;;;5075595;28;20432;-79
2022/06/13 06:28:00;;;;;;;4.57;1.93;;;18.60;99.90;;;;;;5072771;28;20430;-80
2022/06/13 06:30:41;;;;;;;5.77;2.30;;;18.70;99.90;;;;;;5071233;28;20948;-79
2022/06/13 06:33:07;;;;;;;12.80;2.50;;;18.80;99.90;;;;;;5069544;28;20879;-79
2022/06/13 06:35:34;;;;;;;11.50;2.27;;;18.90;99.90;;;;;;5073555;28;20419;-79
2022/06/13 06:38:01;;;;;;;5.60;1.87;;;19.00;99.90;;;;;;5073546;28;20182;-79
2022/06/13 06:43:48;;;;;;;4.30;2.40;;;19.30;99.90;;;;;;5069588;28;20424;-80
2022/06/13 06:46:17;;;;;;;9.13;2.37;;;19.30;99.90;;;;;;5069334;28;20753;-79
2022/06/13 07:01:37;;;;;;;5.97;2.30;;;19.80;99.90;;;;;;5072936;28;20434;-81
2022/06/13 07:04:17;;;;;;;7.13;2.67;;;19.80;99.90;;;;;;5071703;28;20403;-81
2022/06/13 07:06:59;;;;;;;11.43;3.30;;;19.90;99.90;;;;;;5066456;28;20205;-82
2022/06/13 07:10:10;;;;;;;6.70;2.27;;;20.10;99.90;;;;;;5059779;28;20539;-81
2022/06/13 07:16:04;;;;;;;4.83;2.23;;;20.20;99.90;;;;;;5073949;28;20431;-89
2022/06/13 07:22:07;;;;;;;7.93;2.30;;;20.30;99.90;;;;;;5083870;28;20171;-87
2022/06/13 07:27:59;;;;;;;6.57;2.07;;;20.50;99.90;;;;;;5071559;28;20396;-77
2022/06/13 07:30:27;;;;;;;7.77;2.20;;;20.60;99.90;;;;;;5069395;28;20426;-78
2022/06/13 07:32:54;;;;;;;5.57;2.23;;;20.70;99.90;;;;;;5066304;28;20459;-78
2022/06/13 07:35:29;;;;;;;8.50;2.23;;;20.70;99.90;;;;;;5065640;28;20462;-78
2022/06/13 07:38:17;;;;;;;8.87;2.57;;;20.70;99.90;;;;;;5062606;28;20614;-77
2022/06/13 07:40:58;;;;;;;5.73;2.37;;;20.80;99.90;;;;;;5066286;28;20460;-78
2022/06/13 07:43:47;;;;;;;6.30;1.93;;;20.90;99.90;;;;;;5061646;28;20422;-79
2022/06/13 07:46:18;;;;;;;4.83;2.10;;;21.00;99.90;;;;;;5070944;28;20423;-77
2022/06/13 07:48:47;;;;;;;5.23;2.20;;;21.00;99.90;;;;;;5067060;28;20788;-84
2022/06/13 07:51:13;;;;;;;5.50;2.00;;;21.10;99.90;;;;;;5071793;28;20431;-79
2022/06/13 07:53:39;;;;;;;5.87;2.70;;;21.10;99.90;;;;;;5060651;28;20801;-82
2022/06/13 07:56:05;;;;;;;11.57;2.57;;;21.20;99.90;;;;;;5066624;28;20598;-78
2022/06/13 07:58:34;;;;;;;4.13;1.67;;;21.20;99.90;;;;;;5072385;28;20191;-88
2022/06/13 08:01:00;;;;;;;3.63;1.70;;;21.20;99.90;;;;;;5071449;28;20456;-88
2022/06/13 08:03:29;;;;;;;9.37;1.80;;;21.10;99.90;;;;;;5072197;28;20949;-85
2022/06/13 08:06:06;;;;;;;9.10;2.50;;;21.10;99.90;;;;;;5065419;28;20518;-86
2022/06/13 08:08:35;;;;;;;7.40;1.90;;;21.20;99.90;;;;;;5072113;28;20426;-86
2022/06/13 08:11:03;;;;;;;5.43;1.90;;;21.30;99.90;;;;;;5073625;28;20437;-85
2022/06/13 08:13:54;;;;;;;3.70;1.60;;;21.40;99.90;;;;;;5072889;28;20450;-86
2022/06/13 08:16:19;;;;;;;4.60;1.70;;;21.40;99.90;;;;;;5072781;28;20475;-86
2022/06/13 08:18:59;;;;;;;2.57;1.70;;;21.50;99.90;;;;;;5067948;28;20440;-85
2022/06/13 08:21:30;;;;;;;8.57;1.77;;;21.60;99.90;;;;;;5069636;28;20275;-82
2022/06/13 08:24:06;;;;;;;3.90;2.40;;;21.70;99.90;;;;;;5079633;28;20448;-82
2022/06/13 08:26:31;;;;;;;3.90;1.60;;;21.70;99.90;;;;;;5061165;28;20407;-81
2022/06/13 08:28:57;;;;;;;3.57;1.50;;;21.70;99.90;;;;;;5075464;28;20415;-81
2022/06/13 08:31:23;;;;;;;5.67;1.83;;;21.80;99.90;;;;;;5075942;28;20187;-81
2022/06/13 08:33:49;;;;;;;4.03;2.07;;;21.70;99.90;;;;;;5074458;28;20287;-81
2022/06/13 08:36:15;;;;;;;2.40;1.50;;;21.80;99.90;;;;;;5074876;28;20511;-82
2022/06/13 08:38:41;;;;;;;11.20;2.33;;;21.70;99.90;;;;;;5071791;28;20482;-81
2022/06/13 08:41:32;;;;;;;8.00;2.00;;;21.70;99.90;;;;;;5088527;28;20394;-80
2022/06/13 08:44:08;;;;;;;5.30;1.90;;;21.80;99.90;;;;;;5067701;28;20590;-88
2022/06/13 08:47:15;;;;;;;7.83;2.00;;;22.00;99.90;;;;;;5074905;28;20512;-88
2022/06/13 08:49:44;;;;;;;5.03;1.50;;;22.20;99.90;;;;;;5032404;28;20437;-89
2022/06/13 08:52:20;;;;;;;26.87;2.00;;;22.20;99.90;;;;;;5033892;28;20463;-90
2022/06/13 08:55:06;;;;;;;3.90;2.00;;;22.10;99.90;;;;;;5004413;28;20502;-90
2022/06/13 08:58:13;;;;;;;9.20;2.10;;;22.30;99.90;;;;;;5029171;28;20899;-81
2022/06/13 09:00:49;;;;;;;4.27;1.90;;;22.30;99.90;;;;;;5028375;28;20434;-79
2022/06/13 09:10:21;;;;;;;2.70;1.80;;;22.60;99.90;;;;;;5027360;28;20471;-89
2022/06/13 09:13:27;;;;;;;3.13;1.50;;;22.70;99.90;;;;;;5012812;28;21099;-82
2022/06/13 09:16:15;;;;;;;4.57;1.73;;;22.80;99.90;;;;;;5028113;28;20482;-84
2022/06/13 09:18:55;;;;;;;4.43;1.83;;;22.80;99.90;;;;;;5007967;28;20456;-84
2022/06/13 09:24:56;;;;;;;5.00;1.80;;;23.00;99.90;;;;;;5070058;28;20799;-80
2022/06/13 09:28:08;;;;;;;3.40;1.77;;;22.90;99.90;;;;;;5061976;28;20416;-79
2022/06/13 09:30:40;;;;;;;7.10;2.27;;;22.90;99.90;;;;;;5019369;28;20430;-78
2022/06/13 09:33:15;;;;;;;4.97;2.20;;;22.90;99.90;;;;;;5043425;28;20463;-78
2022/06/13 09:36:06;;;;;;;8.43;2.33;;;22.70;99.90;;;;;;5033148;28;21051;-78
2022/06/13 09:42:17;;;;;;;6.37;2.53;;;23.10;99.90;;;;;;5026898;28;20793;-77
2022/06/13 09:45:17;;;;;;;6.80;2.10;;;23.00;99.90;;;;;;5037194;28;20549;-82
2022/06/13 09:48:12;;;;;;;6.07;1.90;;;23.20;99.90;;;;;;5032872;28;20490;-82
2022/06/13 09:51:03;;;;;;;5.27;2.17;;;23.40;99.90;;;;;;5036255;28;20484;-83
2022/06/13 09:53:48;;;;;;;6.20;2.50;;;23.40;99.90;;;;;;5036965;28;20471;-82
2022/06/13 09:56:26;;;;;;;11.17;2.40;;;23.50;99.90;;;;;;5034021;28;20434;-82
2022/06/13 09:59:11;;;;;;;4.97;2.60;;;23.70;99.90;;;;;;5036465;28;20443;-78
2022/06/13 10:01:48;;;;;;;8.93;2.93;;;23.80;99.90;;;;;;5031365;28;20573;-86
2022/06/13 10:04:36;;;;;;;3.93;2.20;;;24.10;99.90;;;;;;5022578;28;20438;-83
2022/06/13 10:07:16;;;;;;;7.60;2.20;;;24.20;99.90;;;;;;5035597;28;20901;-82
2022/06/13 10:10:10;;;;;;;5.37;2.17;;;24.30;99.90;;;;;;5073155;28;20942;-85
2022/06/13 10:12:47;;;;;;;23.07;2.37;;;24.70;99.90;;;;;;5073746;28;20521;-84
2022/06/13 10:15:41;;;;;;;8.00;2.30;;;24.60;99.90;;;;;;5073735;28;20587;-80
2022/06/13 10:18:28;;;;;;;7.23;2.43;;;24.60;99.90;;;;;;5072332;28;20466;-85
2022/06/13 10:21:12;;;;;;;16.33;3.07;;;25.10;99.90;;;;;;5072463;28;20418;-83
2022/06/13 10:24:01;;;;;;;6.00;2.33;;;25.50;99.90;;;;;;5072994;28;20911;-82
2022/06/13 10:26:42;;;;;;;6.50;2.37;;;25.10;99.90;;;;;;5072994;28;20406;-83
2022/06/13 10:29:37;;;;;;;8.43;2.20;;;25.00;99.90;;;;;;5073483;28;20780;-81
2022/06/13 10:32:16;;;;;;;4.23;2.60;;;24.80;99.90;;;;;;5072786;28;20468;-85
2022/06/13 10:35:02;;;;;;;6.20;2.10;;;24.40;99.90;;;;;;5072866;28;20468;-86
2022/06/13 10:37:50;;;;;;;5.20;2.03;;;24.30;99.90;;;;;;5073669;28;20427;-86
2022/06/13 10:40:16;;;;;;;3.23;1.97;;;24.40;99.90;;;;;;5073345;28;20412;-85
2022/06/13 10:42:47;;;;;;;5.37;2.50;;;24.80;99.90;;;;;;5072490;28;20428;-85
2022/06/13 10:45:15;;;;;;;5.83;2.20;;;25.10;99.90;;;;;;5073585;28;20429;-83
2022/06/13 10:47:59;;;;;;;7.97;2.50;;;25.00;99.90;;;;;;5072779;28;20454;-83
2022/06/13 10:50:38;;;;;;;5.50;2.33;;;25.30;99.90;;;;;;5071643;28;20498;-83
2022/06/13 10:53:09;;;;;;;6.57;2.30;;;25.30;99.90;;;;;;5072407;28;20547;-83
2022/06/13 10:55:41;;;;;;;5.40;2.40;;;24.80;99.90;;;;;;5072103;28;20430;-82
2022/06/13 10:58:30;;;;;;;11.30;2.97;;;24.60;99.90;;;;;;5072532;28;20426;-83
2022/06/13 11:01:07;;;;;;;7.03;2.83;;;24.80;99.90;;;;;;5072980;28;20429;-86
2022/06/13 11:03:34;;;;;;;10.43;2.47;;;25.10;99.90;;;;;;5072982;28;20447;-85
2022/06/13 11:06:13;;;;;;;5.90;2.37;;;24.90;99.90;;;;;;5072903;28;20479;-85
2022/06/13 11:08:40;;;;;;;7.47;2.20;;;24.80;99.90;;;;;;5072803;28;20432;-86
2022/06/13 11:11:14;;;;;;;9.67;2.90;;;24.70;99.90;;;;;;5072750;28;20432;-85
2022/06/13 11:13:41;;;;;;;5.70;2.43;;;24.80;99.90;;;;;;5072586;28;20976;-85
2022/06/13 11:22:40;;;;;;;9.80;2.63;;;25.00;99.90;;;;;;5071437;28;20508;-81
2022/06/13 11:25:47;;;;;;;7.67;2.40;;;24.90;99.90;;;;;;5074329;28;20434;-84
2022/06/13 11:28:15;;;;;;;6.27;2.90;;;25.30;99.90;;;;;;5065646;28;20435;-84
2022/06/13 11:31:12;;;;;;;7.23;2.47;;;25.80;99.90;;;;;;5074242;28;20415;-90
2022/06/13 11:33:41;;;;;;;4.10;2.40;;;25.60;99.90;;;;;;5073824;28;20457;-90
2022/06/13 11:36:29;;;;;;;9.53;2.40;;;25.80;99.90;;;;;;5061662;28;20427;-90
2022/06/13 11:45:39;;;;;;;12.03;2.77;;;26.40;99.90;;;;;;5053652;28;20427;-90
2022/06/13 11:51:29;;;;;;;4.07;2.13;;;26.10;99.90;;;;;;5063597;28;20382;-89
2022/06/13 12:00:52;;;;;;;11.13;2.93;;;25.80;99.90;;;;;;5077234;28;20548;-89
2022/06/13 12:03:46;;;;;;;12.70;2.60;;;26.00;99.90;;;;;;5077423;28;20423;-90
2022/06/13 12:06:48;;;;;;;4.30;2.20;;;25.80;99.90;;;;;;5078772;28;20434;-89
2022/06/13 12:16:21;;;;;;;6.20;2.60;;;25.60;99.90;;;;;;5057483;28;20461;-90
2022/06/13 12:22:32;;;;;;;6.60;2.50;;;26.20;99.90;;;;;;5077011;28;20503;-90
2022/06/13 12:31:57;;;;;;;7.63;2.80;;;25.70;99.90;;;;;;5077163;28;20376;-91
2022/06/13 12:38:34;;;;;;;6.77;2.97;;;25.80;99.90;;;;;;5056747;28;20435;-90
2022/06/13 12:44:22;;;;;;;6.83;3.03;;;25.50;99.90;;;;;;5089149;28;20451;-89
2022/06/13 12:50:33;;;;;;;8.23;2.50;;;25.80;99.90;;;;;;5076175;28;20270;-87
2022/06/13 13:07:17;;;;;;;5.47;2.53;;;25.50;99.90;;;;;;5075441;28;20426;-90
2022/06/13 13:16:40;;;;;;;11.70;2.70;;;25.50;99.90;;;;;;5076358;28;20791;-91
2022/06/13 13:19:49;;;;;;;7.00;2.33;;;25.70;99.90;;;;;;5074862;28;20432;-92
2022/06/13 13:32:37;;;;;;;10.47;2.63;;;26.50;99.90;;;;;;5033973;28;20497;-86
2022/06/13 13:35:53;;;;;;;12.30;3.73;;;26.60;99.90;;;;;;5033601;28;20426;-86
2022/06/13 13:38:43;;;;;;;6.97;3.00;;;26.60;99.90;;;;;;5013399;28;20779;-82
2022/06/13 13:44:40;;;;;;;11.73;2.83;;;27.40;99.90;;;;;;5028665;28;20432;-82
2022/06/13 13:47:18;;;;;;;4.73;2.80;;;27.40;99.90;;;;;;5043091;28;20437;-86
2022/06/13 13:49:45;;;;;;;7.33;3.23;;;27.20;99.90;;;;;;5043008;28;20447;-82
2022/06/13 13:52:31;;;;;;;4.80;3.10;;;27.00;99.90;;;;;;5033846;28;20470;-82
2022/06/13 13:55:26;;;;;;;9.87;3.20;;;27.20;99.90;;;;;;5031688;28;21060;-81
2022/06/13 13:57:58;;;;;;;11.17;3.00;;;27.10;99.90;;;;;;5047629;28;20902;-82
2022/06/13 14:00:47;;;;;;;6.00;2.93;;;27.00;99.90;;;;;;5051855;28;20419;-83
2022/06/13 14:03:24;;;;;;;7.97;2.90;;;26.90;99.90;;;;;;4991236;28;20800;-81
2022/06/13 14:06:00;;;;;;;8.40;3.50;;;27.10;99.90;;;;;;4991933;28;20437;-82
2022/06/13 14:08:34;;;;;;;5.17;2.90;;;27.20;99.90;;;;;;4992005;28;20430;-83
2022/06/13 14:11:00;;;;;;;12.50;3.30;;;27.30;99.90;;;;;;4991512;28;20446;-82
2022/06/13 14:13:32;;;;;;;9.00;3.50;;;27.20;99.90;;;;;;4991382;28;20464;-82
2022/06/13 14:16:21;;;;;;;8.87;3.70;;;27.20;99.90;;;;;;4972580;28;20509;-91
2022/06/13 14:19:07;;;;;;;9.73;3.70;;;27.20;99.90;;;;;;4988740;28;21026;-91
2022/06/13 14:21:36;;;;;;;6.70;3.27;;;27.10;99.90;;;;;;4992613;28;20425;-90
2022/06/13 14:24:11;;;;;;;7.07;3.77;;;26.70;99.90;;;;;;4992895;28;20425;-90
2022/06/13 14:26:57;;;;;;;7.70;3.70;;;26.50;99.90;;;;;;4992466;28;20432;-91
2022/06/13 14:29:28;;;;;;;10.50;3.53;;;26.70;99.90;;;;;;4967271;28;20475;-91
2022/06/13 14:32:08;;;;;;;8.20;3.33;;;26.80;99.90;;;;;;4971041;28;20451;-91
2022/06/13 14:37:45;;;;;;;4.90;3.33;;;27.00;99.90;;;;;;4969908;28;20425;-89
2022/06/13 14:40:32;;;;;;;10.70;4.40;;;27.30;99.90;;;;;;5010466;28;20419;-89
2022/06/13 14:43:19;;;;;;;6.80;3.87;;;27.30;99.90;;;;;;5026165;28;20461;-92
2022/06/13 14:45:51;;;;;;;9.40;4.20;;;27.60;99.90;;;;;;5021792;28;20455;-92
2022/06/13 14:48:26;;;;;;;8.20;4.20;;;28.10;99.90;;;;;;5029088;28;20434;-83
2022/06/13 14:50:52;;;;;;;9.37;4.13;;;28.60;99.90;;;;;;5026950;28;20432;-91
2022/06/13 14:53:36;;;;;;;9.30;3.43;;;29.10;99.90;;;;;;5046691;28;20481;-91
2022/06/13 14:56:24;;;;;;;5.60;3.17;;;29.00;99.90;;;;;;5033924;28;20182;-93
2022/06/13 14:58:53;;;;;;;5.37;3.20;;;29.10;99.90;;;;;;4981780;28;20466;-91
2022/06/13 15:01:25;;;;;;;7.07;3.60;;;29.10;99.90;;;;;;4971572;28;20523;-92
2022/06/13 15:03:59;;;;;;;6.10;3.77;;;29.20;99.90;;;;;;4961096;28;20454;-92
2022/06/13 15:06:35;;;;;;;7.93;4.20;;;29.50;99.90;;;;;;4994380;28;20907;-90
2022/06/13 15:09:10;;;;;;;9.53;3.37;;;30.20;99.90;;;;;;5021002;28;20850;-92
2022/06/13 15:11:43;;;;;;;10.20;3.30;;;30.60;99.90;;;;;;5026264;28;20487;-89
2022/06/13 15:14:15;;;;;;;10.93;3.43;;;30.80;99.90;;;;;;5028785;28;20466;-89
2022/06/13 15:16:43;;;;;;;5.87;3.20;;;30.40;99.90;;;;;;5014695;28;20472;-84
2022/06/13 15:19:11;;;;;;;7.50;3.20;;;30.30;99.90;;;;;;5013336;28;20435;-82
2022/06/13 15:21:45;;;;;;;8.50;3.67;;;29.80;99.90;;;;;;5018470;28;20426;-80
2022/06/13 15:24:15;;;;;;;5.70;3.07;;;29.10;99.90;;;;;;5017668;28;20416;-83
2022/06/13 15:26:44;;;;;;;5.33;3.50;;;28.70;99.90;;;;;;5029984;28;20455;-84
2022/06/13 15:29:26;;;;;;;8.60;3.50;;;28.30;99.90;;;;;;5019417;28;20872;-84
2022/06/13 15:31:55;;;;;;;8.47;4.23;;;27.90;99.90;;;;;;5032513;28;20440;-84
2022/06/13 15:34:23;;;;;;;8.63;3.50;;;27.50;99.90;;;;;;5030681;28;20440;-83
2022/06/13 15:37:06;;;;;;;7.43;3.60;;;28.30;99.90;;;;;;5069698;28;20436;-83
2022/06/13 15:39:35;;;;;;;11.40;3.43;;;28.70;99.90;;;;;;5072166;28;20535;-83
2022/06/13 15:42:04;;;;;;;9.40;3.70;;;30.20;99.90;;;;;;5076408;28;20748;-76
2022/06/13 15:44:33;;;;;;;7.70;3.40;;;32.20;99.90;;;;;;5075752;28;20414;-76
2022/06/13 15:47:03;;;;;;;8.63;3.20;;;34.40;99.90;;;;;;5063163;28;20507;-75
2022/06/13 15:49:35;;;;;;;4.83;2.83;;;36.20;99.90;;;;;;5076363;28;20688;-77
2022/06/13 15:52:07;;;;;;;7.40;3.00;;;36.50;99.90;;;;;;5075637;28;20464;-82
2022/06/13 15:54:35;;;;;;;8.37;2.47;;;37.30;99.90;;;;;;5075871;28;20512;-80
2022/06/13 15:57:12;;;;;;;5.10;2.93;;;38.40;99.90;;;;;;5074719;28;20433;-82
2022/06/13 15:59:51;;;;;;;14.30;3.00;;;38.80;99.90;;;;;;5075803;28;20939;-80
2022/06/13 16:02:20;;;;;;;6.00;2.67;;;38.70;99.90;;;;;;5076182;28;20428;-85
2022/06/13 16:04:47;;;;;;;11.50;2.70;;;39.10;99.90;;;;;;5075640;28;20514;-87
2022/06/13 16:07:20;;;;;;;5.13;2.60;;;39.50;99.90;;;;;;5074641;28;20432;-85
2022/06/13 16:09:46;;;;;;;5.40;2.90;;;39.60;99.90;;;;;;5075155;28;20526;-79
2022/06/13 16:12:15;;;;;;;2.43;2.03;;;40.00;99.90;;;;;;5075934;28;20478;-83
2022/06/13 16:14:47;;;;;;;6.20;2.40;;;39.40;99.90;;;;;;5075521;28;20593;-86
2022/06/13 16:17:26;;;;;;;8.70;2.70;;;38.80;99.90;;;;;;5075670;28;20473;-88